sensor_id;sensor_type;location;lat;lon;timestamp;P1;durP1;ratioP1;P2;durP2;ratioP2
68250;SDS011;55066;51.560;4.642;2023-02-18T00:01:11;40.47;;;13.45;;
68250;SDS011;55066;51.560;4.642;2023-02-18T00:03:39;45.53;;;14.18;;
68250;SDS011;55066;51.560;4.642;2023-02-18T00:06:16;44.25;;;12.90;;
68250;SDS011;55066;51.560;4.642;2023-02-18T00:08:45;38.33;;;12.43;;
68250;SDS011;55066;51.560;4.642;2023-02-18T00:11:11;41.50;;;13.15;;
68250;SDS011;55066;51.560;4.642;2023-02-18T00:13:37;41.03;;;13.45;;
68250;SDS011;55066;51.560;4.642;2023-02-18T00:16:04;43.22;;;13.88;;
68250;SDS011;55066;51.560;4.642;2023-02-18T00:18:31;43.50;;;12.68;;
68250;SDS011;55066;51.560;4.642;2023-02-18T00:20:57;39.83;;;12.05;;
68250;SDS011;55066;51.560;4.642;2023-02-18T00:23:26;44.47;;;13.75;;
68250;SDS011;55066;51.560;4.642;2023-02-18T00:25:58;49.17;;;14.30;;
68250;SDS011;55066;51.560;4.642;2023-02-18T00:28:25;43.23;;;13.37;;
68250;SDS011;55066;51.560;4.642;2023-02-18T00:30:51;43.83;;;13.98;;
68250;SDS011;55066;51.560;4.642;2023-02-18T00:33:17;43.97;;;13.00;;
68250;SDS011;55066;51.560;4.642;2023-02-18T00:35:42;43.03;;;12.57;;
68250;SDS011;55066;51.560;4.642;2023-02-18T00:38:07;40.27;;;13.20;;
68250;SDS011;55066;51.560;4.642;2023-02-18T00:40:36;46.07;;;13.83;;
68250;SDS011;55066;51.560;4.642;2023-02-18T00:43:02;45.25;;;12.88;;
68250;SDS011;55066;51.560;4.642;2023-02-18T00:45:29;45.75;;;12.75;;
68250;SDS011;55066;51.560;4.642;2023-02-18T00:47:56;51.88;;;14.07;;
68250;SDS011;55066;51.560;4.642;2023-02-18T00:50:21;46.70;;;14.50;;
68250;SDS011;55066;51.560;4.642;2023-02-18T00:52:48;39.72;;;12.98;;
68250;SDS011;55066;51.560;4.642;2023-02-18T00:55:14;41.83;;;12.97;;
68250;SDS011;55066;51.560;4.642;2023-02-18T00:57:40;42.65;;;12.15;;
68250;SDS011;55066;51.560;4.642;2023-02-18T01:00:06;37.93;;;11.50;;
68250;SDS011;55066;51.560;4.642;2023-02-18T01:02:33;41.22;;;12.55;;
68250;SDS011;55066;51.560;4.642;2023-02-18T01:04:59;36.33;;;11.55;;
68250;SDS011;55066;51.560;4.642;2023-02-18T01:07:25;39.97;;;12.70;;
68250;SDS011;55066;51.560;4.642;2023-02-18T01:09:52;42.15;;;12.77;;
68250;SDS011;55066;51.560;4.642;2023-02-18T01:12:18;36.15;;;12.48;;
68250;SDS011;55066;51.560;4.642;2023-02-18T01:14:44;32.42;;;11.40;;
68250;SDS011;55066;51.560;4.642;2023-02-18T01:17:10;45.27;;;13.77;;
68250;SDS011;55066;51.560;4.642;2023-02-18T01:19:38;40.47;;;12.02;;
68250;SDS011;55066;51.560;4.642;2023-02-18T01:22:04;37.38;;;11.75;;
68250;SDS011;55066;51.560;4.642;2023-02-18T01:24:31;36.60;;;11.70;;
68250;SDS011;55066;51.560;4.642;2023-02-18T01:26:56;39.67;;;13.02;;
68250;SDS011;55066;51.560;4.642;2023-02-18T01:29:22;36.67;;;12.20;;
68250;SDS011;55066;51.560;4.642;2023-02-18T01:31:47;41.75;;;12.68;;
68250;SDS011;55066;51.560;4.642;2023-02-18T01:34:14;38.58;;;12.70;;
68250;SDS011;55066;51.560;4.642;2023-02-18T01:36:40;39.47;;;12.20;;
68250;SDS011;55066;51.560;4.642;2023-02-18T01:39:06;38.05;;;12.43;;
68250;SDS011;55066;51.560;4.642;2023-02-18T01:41:31;38.33;;;12.00;;
68250;SDS011;55066;51.560;4.642;2023-02-18T01:44:11;35.80;;;12.93;;
68250;SDS011;55066;51.560;4.642;2023-02-18T01:46:39;39.25;;;12.75;;
68250;SDS011;55066;51.560;4.642;2023-02-18T01:49:09;43.53;;;14.20;;
68250;SDS011;55066;51.560;4.642;2023-02-18T01:51:59;37.92;;;11.77;;
68250;SDS011;55066;51.560;4.642;2023-02-18T01:54:50;38.70;;;12.82;;
68250;SDS011;55066;51.560;4.642;2023-02-18T01:57:23;35.88;;;13.05;;
68250;SDS011;55066;51.560;4.642;2023-02-18T01:59:57;40.80;;;14.07;;
68250;SDS011;55066;51.560;4.642;2023-02-18T02:02:29;42.63;;;12.67;;
68250;SDS011;55066;51.560;4.642;2023-02-18T02:04:57;43.33;;;12.52;;
68250;SDS011;55066;51.560;4.642;2023-02-18T02:07:23;39.40;;;12.98;;
68250;SDS011;55066;51.560;4.642;2023-02-18T02:09:53;35.85;;;11.60;;
68250;SDS011;55066;51.560;4.642;2023-02-18T02:12:24;38.17;;;12.17;;
68250;SDS011;55066;51.560;4.642;2023-02-18T02:17:33;43.92;;;13.73;;
68250;SDS011;55066;51.560;4.642;2023-02-18T02:23:19;34.17;;;11.07;;
68250;SDS011;55066;51.560;4.642;2023-02-18T02:39:55;42.20;;;13.53;;
68250;SDS011;55066;51.560;4.642;2023-02-18T02:47:54;39.80;;;12.63;;
68250;SDS011;55066;51.560;4.642;2023-02-18T02:50:46;41.40;;;12.73;;
68250;SDS011;55066;51.560;4.642;2023-02-18T02:53:26;37.40;;;12.40;;
68250;SDS011;55066;51.560;4.642;2023-02-18T02:55:55;44.13;;;11.15;;
68250;SDS011;55066;51.560;4.642;2023-02-18T02:58:23;39.50;;;12.25;;
68250;SDS011;55066;51.560;4.642;2023-02-18T03:03:34;35.05;;;11.73;;
68250;SDS011;55066;51.560;4.642;2023-02-18T03:08:51;30.70;;;10.63;;
68250;SDS011;55066;51.560;4.642;2023-02-18T03:12:00;33.42;;;11.25;;
68250;SDS011;55066;51.560;4.642;2023-02-18T03:14:52;25.93;;;8.57;;
68250;SDS011;55066;51.560;4.642;2023-02-18T03:17:34;29.35;;;9.98;;
68250;SDS011;55066;51.560;4.642;2023-02-18T03:22:56;26.10;;;9.18;;
68250;SDS011;55066;51.560;4.642;2023-02-18T03:25:24;27.77;;;9.20;;
68250;SDS011;55066;51.560;4.642;2023-02-18T03:27:55;25.30;;;9.30;;
68250;SDS011;55066;51.560;4.642;2023-02-18T03:30:26;29.05;;;9.55;;
68250;SDS011;55066;51.560;4.642;2023-02-18T03:32:58;28.20;;;9.20;;
68250;SDS011;55066;51.560;4.642;2023-02-18T03:35:29;28.77;;;9.25;;
68250;SDS011;55066;51.560;4.642;2023-02-18T03:38:04;24.88;;;7.80;;
68250;SDS011;55066;51.560;4.642;2023-02-18T03:40:48;21.27;;;7.43;;
68250;SDS011;55066;51.560;4.642;2023-02-18T03:43:14;22.45;;;7.90;;
68250;SDS011;55066;51.560;4.642;2023-02-18T03:45:40;24.25;;;8.00;;
68250;SDS011;55066;51.560;4.642;2023-02-18T03:48:05;20.58;;;7.38;;
68250;SDS011;55066;51.560;4.642;2023-02-18T03:50:31;26.33;;;8.33;;
68250;SDS011;55066;51.560;4.642;2023-02-18T03:52:57;25.73;;;8.35;;
68250;SDS011;55066;51.560;4.642;2023-02-18T03:55:23;21.03;;;8.23;;
68250;SDS011;55066;51.560;4.642;2023-02-18T03:57:48;24.23;;;8.05;;
68250;SDS011;55066;51.560;4.642;2023-02-18T04:00:16;18.08;;;7.28;;
68250;SDS011;55066;51.560;4.642;2023-02-18T04:02:42;23.73;;;8.05;;
68250;SDS011;55066;51.560;4.642;2023-02-18T04:05:09;22.88;;;8.23;;
68250;SDS011;55066;51.560;4.642;2023-02-18T04:07:35;23.90;;;8.90;;
68250;SDS011;55066;51.560;4.642;2023-02-18T04:10:03;24.20;;;8.70;;
68250;SDS011;55066;51.560;4.642;2023-02-18T04:12:29;18.02;;;6.80;;
68250;SDS011;55066;51.560;4.642;2023-02-18T04:14:54;22.48;;;7.72;;
68250;SDS011;55066;51.560;4.642;2023-02-18T04:17:20;19.75;;;7.32;;
68250;SDS011;55066;51.560;4.642;2023-02-18T04:19:47;16.83;;;6.57;;
68250;SDS011;55066;51.560;4.642;2023-02-18T04:22:14;17.52;;;6.63;;
68250;SDS011;55066;51.560;4.642;2023-02-18T04:24:39;17.47;;;6.27;;
68250;SDS011;55066;51.560;4.642;2023-02-18T04:27:05;17.02;;;6.65;;
68250;SDS011;55066;51.560;4.642;2023-02-18T04:29:31;13.55;;;5.93;;
68250;SDS011;55066;51.560;4.642;2023-02-18T04:31:57;15.23;;;5.97;;
68250;SDS011;55066;51.560;4.642;2023-02-18T04:34:22;15.57;;;5.70;;
68250;SDS011;55066;51.560;4.642;2023-02-18T04:36:49;16.15;;;5.82;;
68250;SDS011;55066;51.560;4.642;2023-02-18T04:39:16;14.35;;;4.88;;
68250;SDS011;55066;51.560;4.642;2023-02-18T04:41:42;14.33;;;5.10;;
68250;SDS011;55066;51.560;4.642;2023-02-18T04:44:10;14.40;;;5.20;;
68250;SDS011;55066;51.560;4.642;2023-02-18T04:46:37;12.48;;;4.65;;
68250;SDS011;55066;51.560;4.642;2023-02-18T04:49:06;12.43;;;5.10;;
68250;SDS011;55066;51.560;4.642;2023-02-18T04:51:33;13.60;;;5.28;;
68250;SDS011;55066;51.560;4.642;2023-02-18T04:54:01;11.45;;;4.63;;
68250;SDS011;55066;51.560;4.642;2023-02-18T04:56:28;14.30;;;4.50;;
68250;SDS011;55066;51.560;4.642;2023-02-18T04:58:53;10.13;;;3.80;;
68250;SDS011;55066;51.560;4.642;2023-02-18T05:01:23;8.20;;;3.70;;
68250;SDS011;55066;51.560;4.642;2023-02-18T05:03:48;10.73;;;4.13;;
68250;SDS011;55066;51.560;4.642;2023-02-18T05:06:14;10.38;;;3.70;;
68250;SDS011;55066;51.560;4.642;2023-02-18T05:08:39;10.00;;;4.13;;
68250;SDS011;55066;51.560;4.642;2023-02-18T05:11:08;11.02;;;4.20;;
68250;SDS011;55066;51.560;4.642;2023-02-18T05:13:36;14.07;;;3.87;;
68250;SDS011;55066;51.560;4.642;2023-02-18T05:16:02;11.98;;;3.97;;
68250;SDS011;55066;51.560;4.642;2023-02-18T05:18:28;15.15;;;4.80;;
68250;SDS011;55066;51.560;4.642;2023-02-18T05:20:54;14.13;;;4.70;;
68250;SDS011;55066;51.560;4.642;2023-02-18T05:23:20;12.65;;;4.53;;
68250;SDS011;55066;51.560;4.642;2023-02-18T05:25:46;14.18;;;4.53;;
68250;SDS011;55066;51.560;4.642;2023-02-18T05:28:12;16.80;;;5.30;;
68250;SDS011;55066;51.560;4.642;2023-02-18T05:30:37;12.88;;;4.68;;
68250;SDS011;55066;51.560;4.642;2023-02-18T05:33:03;15.02;;;4.35;;
68250;SDS011;55066;51.560;4.642;2023-02-18T05:35:29;14.03;;;4.10;;
68250;SDS011;55066;51.560;4.642;2023-02-18T05:37:54;15.82;;;5.63;;
68250;SDS011;55066;51.560;4.642;2023-02-18T05:40:20;16.63;;;4.72;;
68250;SDS011;55066;51.560;4.642;2023-02-18T05:42:46;13.57;;;4.63;;
68250;SDS011;55066;51.560;4.642;2023-02-18T05:45:12;16.80;;;5.10;;
68250;SDS011;55066;51.560;4.642;2023-02-18T05:47:39;16.42;;;4.70;;
68250;SDS011;55066;51.560;4.642;2023-02-18T05:50:05;13.80;;;4.30;;
68250;SDS011;55066;51.560;4.642;2023-02-18T05:52:31;12.07;;;3.80;;
68250;SDS011;55066;51.560;4.642;2023-02-18T05:54:57;15.65;;;4.55;;
68250;SDS011;55066;51.560;4.642;2023-02-18T05:57:22;13.67;;;4.50;;
68250;SDS011;55066;51.560;4.642;2023-02-18T05:59:48;16.57;;;4.77;;
68250;SDS011;55066;51.560;4.642;2023-02-18T06:02:14;18.67;;;4.80;;
68250;SDS011;55066;51.560;4.642;2023-02-18T06:04:39;14.10;;;4.57;;
68250;SDS011;55066;51.560;4.642;2023-02-18T06:07:06;15.18;;;5.13;;
68250;SDS011;55066;51.560;4.642;2023-02-18T06:09:32;13.27;;;4.47;;
68250;SDS011;55066;51.560;4.642;2023-02-18T06:11:58;12.77;;;4.60;;
68250;SDS011;55066;51.560;4.642;2023-02-18T06:14:24;16.55;;;5.40;;
68250;SDS011;55066;51.560;4.642;2023-02-18T06:16:51;12.43;;;3.92;;
68250;SDS011;55066;51.560;4.642;2023-02-18T06:19:16;12.53;;;4.97;;
68250;SDS011;55066;51.560;4.642;2023-02-18T06:21:42;11.85;;;4.38;;
68250;SDS011;55066;51.560;4.642;2023-02-18T06:24:08;14.20;;;4.80;;
68250;SDS011;55066;51.560;4.642;2023-02-18T06:26:34;10.30;;;3.83;;
68250;SDS011;55066;51.560;4.642;2023-02-18T06:29:02;14.10;;;4.68;;
68250;SDS011;55066;51.560;4.642;2023-02-18T06:31:31;11.90;;;3.78;;
68250;SDS011;55066;51.560;4.642;2023-02-18T06:33:56;12.68;;;4.28;;
68250;SDS011;55066;51.560;4.642;2023-02-18T06:36:22;12.55;;;4.32;;
68250;SDS011;55066;51.560;4.642;2023-02-18T06:38:48;16.70;;;5.10;;
68250;SDS011;55066;51.560;4.642;2023-02-18T06:41:14;16.15;;;4.47;;
68250;SDS011;55066;51.560;4.642;2023-02-18T06:43:40;19.38;;;5.47;;
68250;SDS011;55066;51.560;4.642;2023-02-18T06:46:06;20.50;;;5.07;;
68250;SDS011;55066;51.560;4.642;2023-02-18T06:48:32;13.82;;;3.70;;
68250;SDS011;55066;51.560;4.642;2023-02-18T06:50:59;14.98;;;4.35;;
68250;SDS011;55066;51.560;4.642;2023-02-18T06:53:25;14.25;;;4.43;;
68250;SDS011;55066;51.560;4.642;2023-02-18T06:55:52;14.75;;;4.50;;
68250;SDS011;55066;51.560;4.642;2023-02-18T06:58:17;16.60;;;4.78;;
68250;SDS011;55066;51.560;4.642;2023-02-18T07:00:43;22.20;;;4.93;;
68250;SDS011;55066;51.560;4.642;2023-02-18T07:03:10;16.80;;;4.67;;
68250;SDS011;55066;51.560;4.642;2023-02-18T07:05:37;23.20;;;5.38;;
68250;SDS011;55066;51.560;4.642;2023-02-18T07:08:02;22.57;;;4.63;;
68250;SDS011;55066;51.560;4.642;2023-02-18T07:10:28;10.38;;;3.28;;
68250;SDS011;55066;51.560;4.642;2023-02-18T07:12:54;21.60;;;5.17;;
68250;SDS011;55066;51.560;4.642;2023-02-18T07:15:20;26.42;;;5.20;;
68250;SDS011;55066;51.560;4.642;2023-02-18T07:17:49;18.60;;;4.95;;
68250;SDS011;55066;51.560;4.642;2023-02-18T07:20:16;13.93;;;4.82;;
68250;SDS011;55066;51.560;4.642;2023-02-18T07:22:42;16.00;;;5.18;;
68250;SDS011;55066;51.560;4.642;2023-02-18T07:25:09;17.33;;;4.80;;
68250;SDS011;55066;51.560;4.642;2023-02-18T07:27:35;25.20;;;5.60;;
68250;SDS011;55066;51.560;4.642;2023-02-18T07:30:00;17.67;;;4.20;;
68250;SDS011;55066;51.560;4.642;2023-02-18T07:32:27;23.05;;;5.43;;
68250;SDS011;55066;51.560;4.642;2023-02-18T07:34:52;18.53;;;4.57;;
68250;SDS011;55066;51.560;4.642;2023-02-18T07:37:19;18.70;;;4.67;;
68250;SDS011;55066;51.560;4.642;2023-02-18T07:39:45;20.58;;;4.75;;
68250;SDS011;55066;51.560;4.642;2023-02-18T07:42:11;17.23;;;4.43;;
68250;SDS011;55066;51.560;4.642;2023-02-18T07:44:39;14.70;;;4.60;;
68250;SDS011;55066;51.560;4.642;2023-02-18T07:47:06;17.80;;;4.88;;
68250;SDS011;55066;51.560;4.642;2023-02-18T07:49:34;17.00;;;4.20;;
68250;SDS011;55066;51.560;4.642;2023-02-18T07:52:00;14.48;;;3.20;;
68250;SDS011;55066;51.560;4.642;2023-02-18T07:54:27;20.83;;;4.37;;
68250;SDS011;55066;51.560;4.642;2023-02-18T07:56:53;17.08;;;4.10;;
68250;SDS011;55066;51.560;4.642;2023-02-18T07:59:20;22.60;;;3.72;;
68250;SDS011;55066;51.560;4.642;2023-02-18T08:01:45;14.53;;;3.60;;
68250;SDS011;55066;51.560;4.642;2023-02-18T08:04:11;12.20;;;3.00;;
68250;SDS011;55066;51.560;4.642;2023-02-18T08:06:42;16.40;;;3.73;;
68250;SDS011;55066;51.560;4.642;2023-02-18T08:09:12;17.40;;;3.65;;
68250;SDS011;55066;51.560;4.642;2023-02-18T08:11:40;14.52;;;2.72;;
68250;SDS011;55066;51.560;4.642;2023-02-18T08:14:06;12.80;;;2.83;;
68250;SDS011;55066;51.560;4.642;2023-02-18T08:16:32;13.07;;;3.10;;
68250;SDS011;55066;51.560;4.642;2023-02-18T08:18:58;15.73;;;3.15;;
68250;SDS011;55066;51.560;4.642;2023-02-18T08:21:24;13.55;;;2.33;;
68250;SDS011;55066;51.560;4.642;2023-02-18T08:23:52;18.65;;;2.50;;
68250;SDS011;55066;51.560;4.642;2023-02-18T08:26:18;14.90;;;2.63;;
68250;SDS011;55066;51.560;4.642;2023-02-18T08:28:45;13.98;;;2.17;;
68250;SDS011;55066;51.560;4.642;2023-02-18T08:31:23;13.68;;;2.38;;
68250;SDS011;55066;51.560;4.642;2023-02-18T08:33:51;9.77;;;2.15;;
68250;SDS011;55066;51.560;4.642;2023-02-18T08:36:17;15.97;;;2.97;;
68250;SDS011;55066;51.560;4.642;2023-02-18T08:38:44;14.52;;;2.30;;
68250;SDS011;55066;51.560;4.642;2023-02-18T08:41:09;18.15;;;2.95;;
68250;SDS011;55066;51.560;4.642;2023-02-18T08:43:35;13.30;;;2.33;;
68250;SDS011;55066;51.560;4.642;2023-02-18T08:46:01;11.25;;;2.28;;
68250;SDS011;55066;51.560;4.642;2023-02-18T08:48:27;14.40;;;2.47;;
68250;SDS011;55066;51.560;4.642;2023-02-18T08:50:53;12.77;;;2.50;;
68250;SDS011;55066;51.560;4.642;2023-02-18T08:53:19;12.45;;;2.45;;
68250;SDS011;55066;51.560;4.642;2023-02-18T08:55:44;14.10;;;2.60;;
68250;SDS011;55066;51.560;4.642;2023-02-18T08:58:10;14.40;;;2.10;;
68250;SDS011;55066;51.560;4.642;2023-02-18T09:00:36;12.25;;;2.55;;
68250;SDS011;55066;51.560;4.642;2023-02-18T09:03:03;15.52;;;2.50;;
68250;SDS011;55066;51.560;4.642;2023-02-18T09:05:28;10.33;;;2.30;;
68250;SDS011;55066;51.560;4.642;2023-02-18T09:07:54;13.40;;;2.08;;
68250;SDS011;55066;51.560;4.642;2023-02-18T09:10:20;13.00;;;2.50;;
68250;SDS011;55066;51.560;4.642;2023-02-18T09:12:46;9.35;;;1.75;;
68250;SDS011;55066;51.560;4.642;2023-02-18T09:15:12;11.37;;;1.87;;
68250;SDS011;55066;51.560;4.642;2023-02-18T09:17:38;7.47;;;1.80;;
68250;SDS011;55066;51.560;4.642;2023-02-18T09:20:03;10.93;;;1.80;;
68250;SDS011;55066;51.560;4.642;2023-02-18T09:22:30;11.13;;;1.70;;
68250;SDS011;55066;51.560;4.642;2023-02-18T09:24:56;12.20;;;1.77;;
68250;SDS011;55066;51.560;4.642;2023-02-18T09:27:22;7.23;;;1.80;;
68250;SDS011;55066;51.560;4.642;2023-02-18T09:29:49;13.20;;;1.92;;
68250;SDS011;55066;51.560;4.642;2023-02-18T09:32:15;8.37;;;1.83;;
68250;SDS011;55066;51.560;4.642;2023-02-18T09:34:42;6.13;;;1.70;;
68250;SDS011;55066;51.560;4.642;2023-02-18T09:37:09;13.48;;;2.35;;
68250;SDS011;55066;51.560;4.642;2023-02-18T09:39:35;5.40;;;1.35;;
68250;SDS011;55066;51.560;4.642;2023-02-18T09:42:02;7.70;;;1.83;;
68250;SDS011;55066;51.560;4.642;2023-02-18T09:44:35;8.35;;;2.13;;
68250;SDS011;55066;51.560;4.642;2023-02-18T09:47:11;8.48;;;1.73;;
68250;SDS011;55066;51.560;4.642;2023-02-18T09:50:05;8.25;;;1.40;;
68250;SDS011;55066;51.560;4.642;2023-02-18T09:52:32;9.82;;;1.80;;
68250;SDS011;55066;51.560;4.642;2023-02-18T09:55:17;8.20;;;1.53;;
68250;SDS011;55066;51.560;4.642;2023-02-18T09:58:11;5.97;;;1.35;;
68250;SDS011;55066;51.560;4.642;2023-02-18T10:00:47;13.38;;;2.13;;
68250;SDS011;55066;51.560;4.642;2023-02-18T10:03:17;9.88;;;2.10;;
68250;SDS011;55066;51.560;4.642;2023-02-18T10:06:09;6.82;;;1.90;;
68250;SDS011;55066;51.560;4.642;2023-02-18T10:08:37;5.77;;;1.53;;
68250;SDS011;55066;51.560;4.642;2023-02-18T10:11:21;12.45;;;2.45;;
68250;SDS011;55066;51.560;4.642;2023-02-18T10:13:47;11.98;;;2.30;;
68250;SDS011;55066;51.560;4.642;2023-02-18T10:16:16;14.63;;;2.90;;
68250;SDS011;55066;51.560;4.642;2023-02-18T10:18:44;5.57;;;2.30;;
68250;SDS011;55066;51.560;4.642;2023-02-18T10:21:18;7.13;;;2.40;;
68250;SDS011;55066;51.560;4.642;2023-02-18T10:23:59;9.68;;;2.65;;
68250;SDS011;55066;51.560;4.642;2023-02-18T10:26:28;10.88;;;2.90;;
68250;SDS011;55066;51.560;4.642;2023-02-18T10:28:55;11.13;;;2.83;;
68250;SDS011;55066;51.560;4.642;2023-02-18T10:31:34;9.38;;;2.60;;
68250;SDS011;55066;51.560;4.642;2023-02-18T10:37:07;13.45;;;2.85;;
68250;SDS011;55066;51.560;4.642;2023-02-18T10:42:46;7.03;;;2.50;;
68250;SDS011;55066;51.560;4.642;2023-02-18T10:45:41;10.07;;;3.55;;
68250;SDS011;55066;51.560;4.642;2023-02-18T10:48:23;15.13;;;3.53;;
68250;SDS011;55066;51.560;4.642;2023-02-18T10:51:31;14.18;;;3.08;;
68250;SDS011;55066;51.560;4.642;2023-02-18T10:53:59;14.43;;;3.97;;
68250;SDS011;55066;51.560;4.642;2023-02-18T10:56:38;9.95;;;2.97;;
68250;SDS011;55066;51.560;4.642;2023-02-18T11:01:41;8.40;;;3.00;;
68250;SDS011;55066;51.560;4.642;2023-02-18T11:04:25;12.52;;;2.97;;
68250;SDS011;55066;51.560;4.642;2023-02-18T11:07:14;14.25;;;3.13;;
68250;SDS011;55066;51.560;4.642;2023-02-18T11:09:51;16.60;;;3.72;;
68250;SDS011;55066;51.560;4.642;2023-02-18T11:12:23;10.95;;;3.13;;
68250;SDS011;55066;51.560;4.642;2023-02-18T11:17:32;9.80;;;2.95;;
68250;SDS011;55066;51.560;4.642;2023-02-18T11:19:59;7.07;;;2.63;;
68250;SDS011;55066;51.560;4.642;2023-02-18T11:24:58;8.88;;;2.30;;
68250;SDS011;55066;51.560;4.642;2023-02-18T11:27:34;11.80;;;2.90;;
68250;SDS011;55066;51.560;4.642;2023-02-18T11:32:42;7.72;;;2.40;;
68250;SDS011;55066;51.560;4.642;2023-02-18T11:35:16;5.50;;;2.03;;
68250;SDS011;55066;51.560;4.642;2023-02-18T11:37:44;8.52;;;2.45;;
68250;SDS011;55066;51.560;4.642;2023-02-18T11:40:24;7.85;;;2.50;;
68250;SDS011;55066;51.560;4.642;2023-02-18T11:43:01;6.68;;;2.50;;
68250;SDS011;55066;51.560;4.642;2023-02-18T11:45:32;9.27;;;2.40;;
68250;SDS011;55066;51.560;4.642;2023-02-18T11:48:05;11.23;;;3.08;;
68250;SDS011;55066;51.560;4.642;2023-02-18T11:50:33;9.45;;;2.58;;
68250;SDS011;55066;51.560;4.642;2023-02-18T11:52:59;10.32;;;2.75;;
68250;SDS011;55066;51.560;4.642;2023-02-18T11:55:26;12.77;;;2.83;;
68250;SDS011;55066;51.560;4.642;2023-02-18T11:58:03;12.75;;;2.83;;
68250;SDS011;55066;51.560;4.642;2023-02-18T12:00:46;11.65;;;2.67;;
68250;SDS011;55066;51.560;4.642;2023-02-18T12:05:48;12.45;;;1.95;;
68250;SDS011;55066;51.560;4.642;2023-02-18T12:08:26;10.10;;;1.98;;
68250;SDS011;55066;51.560;4.642;2023-02-18T12:10:53;9.65;;;2.10;;
68250;SDS011;55066;51.560;4.642;2023-02-18T12:13:30;8.95;;;2.00;;
68250;SDS011;55066;51.560;4.642;2023-02-18T12:16:05;8.47;;;2.20;;
68250;SDS011;55066;51.560;4.642;2023-02-18T12:18:47;6.30;;;1.80;;
68250;SDS011;55066;51.560;4.642;2023-02-18T12:32:30;6.63;;;1.58;;
68250;SDS011;55066;51.560;4.642;2023-02-18T12:40:46;13.20;;;1.85;;
68250;SDS011;55066;51.560;4.642;2023-02-18T12:43:24;10.17;;;1.90;;
68250;SDS011;55066;51.560;4.642;2023-02-18T12:51:42;7.28;;;1.75;;
68250;SDS011;55066;51.560;4.642;2023-02-18T13:05:36;7.90;;;1.67;;
68250;SDS011;55066;51.560;4.642;2023-02-18T13:13:38;11.55;;;2.50;;
68250;SDS011;55066;51.560;4.642;2023-02-18T13:16:10;15.35;;;1.65;;
68250;SDS011;55066;51.560;4.642;2023-02-18T13:18:40;10.63;;;2.05;;
68250;SDS011;55066;51.560;4.642;2023-02-18T13:21:28;12.05;;;2.00;;
68250;SDS011;55066;51.560;4.642;2023-02-18T13:24:02;9.57;;;1.93;;
68250;SDS011;55066;51.560;4.642;2023-02-18T13:26:31;10.85;;;2.40;;
68250;SDS011;55066;51.560;4.642;2023-02-18T13:34:26;10.98;;;1.75;;
68250;SDS011;55066;51.560;4.642;2023-02-18T13:39:35;10.20;;;1.60;;
68250;SDS011;55066;51.560;4.642;2023-02-18T13:47:43;8.73;;;1.95;;
68250;SDS011;55066;51.560;4.642;2023-02-18T13:52:56;15.55;;;2.40;;
68250;SDS011;55066;51.560;4.642;2023-02-18T13:55:34;8.25;;;2.28;;
68250;SDS011;55066;51.560;4.642;2023-02-18T13:58:15;4.88;;;1.70;;
68250;SDS011;55066;51.560;4.642;2023-02-18T14:00:47;6.47;;;1.60;;
68250;SDS011;55066;51.560;4.642;2023-02-18T14:08:43;8.40;;;2.20;;
68250;SDS011;55066;51.560;4.642;2023-02-18T14:16:11;7.93;;;1.93;;
68250;SDS011;55066;51.560;4.642;2023-02-18T14:28:42;11.23;;;2.00;;
68250;SDS011;55066;51.560;4.642;2023-02-18T14:36:42;9.37;;;2.00;;
68250;SDS011;55066;51.560;4.642;2023-02-18T14:42:55;8.93;;;2.03;;
68250;SDS011;55066;51.560;4.642;2023-02-18T14:45:41;7.33;;;1.77;;
68250;SDS011;55066;51.560;4.642;2023-02-18T14:51:41;9.88;;;1.90;;
68250;SDS011;55066;51.560;4.642;2023-02-18T14:54:16;7.03;;;1.63;;
68250;SDS011;55066;51.560;4.642;2023-02-18T14:57:07;6.80;;;1.65;;
68250;SDS011;55066;51.560;4.642;2023-02-18T14:59:41;9.30;;;1.80;;
68250;SDS011;55066;51.560;4.642;2023-02-18T15:02:14;8.23;;;1.77;;
68250;SDS011;55066;51.560;4.642;2023-02-18T15:04:46;11.98;;;2.10;;
68250;SDS011;55066;51.560;4.642;2023-02-18T15:07:17;6.13;;;1.52;;
68250;SDS011;55066;51.560;4.642;2023-02-18T15:09:47;13.52;;;2.63;;
68250;SDS011;55066;51.560;4.642;2023-02-18T15:12:15;10.47;;;2.20;;
68250;SDS011;55066;51.560;4.642;2023-02-18T15:14:44;12.70;;;2.10;;
68250;SDS011;55066;51.560;4.642;2023-02-18T15:17:13;8.70;;;1.85;;
68250;SDS011;55066;51.560;4.642;2023-02-18T15:20:03;11.15;;;1.75;;
68250;SDS011;55066;51.560;4.642;2023-02-18T15:22:31;8.75;;;2.17;;
68250;SDS011;55066;51.560;4.642;2023-02-18T15:25:00;7.60;;;1.83;;
68250;SDS011;55066;51.560;4.642;2023-02-18T15:27:28;7.72;;;2.35;;
68250;SDS011;55066;51.560;4.642;2023-02-18T15:29:56;9.65;;;2.25;;
68250;SDS011;55066;51.560;4.642;2023-02-18T15:32:39;8.07;;;2.00;;
68250;SDS011;55066;51.560;4.642;2023-02-18T15:35:13;9.60;;;2.35;;
68250;SDS011;55066;51.560;4.642;2023-02-18T15:37:43;7.93;;;3.00;;
68250;SDS011;55066;51.560;4.642;2023-02-18T15:40:16;10.88;;;2.22;;
68250;SDS011;55066;51.560;4.642;2023-02-18T15:42:44;12.05;;;2.67;;
68250;SDS011;55066;51.560;4.642;2023-02-18T15:45:15;11.73;;;2.60;;
68250;SDS011;55066;51.560;4.642;2023-02-18T15:47:47;10.95;;;3.50;;
68250;SDS011;55066;51.560;4.642;2023-02-18T15:50:24;13.00;;;3.30;;
68250;SDS011;55066;51.560;4.642;2023-02-18T15:52:52;14.63;;;3.55;;
68250;SDS011;55066;51.560;4.642;2023-02-18T15:55:41;18.38;;;3.88;;
68250;SDS011;55066;51.560;4.642;2023-02-18T15:58:07;12.95;;;3.95;;
68250;SDS011;55066;51.560;4.642;2023-02-18T16:03:20;17.20;;;5.00;;
68250;SDS011;55066;51.560;4.642;2023-02-18T16:05:49;16.38;;;4.55;;
68250;SDS011;55066;51.560;4.642;2023-02-18T16:08:22;15.70;;;5.00;;
68250;SDS011;55066;51.560;4.642;2023-02-18T16:10:54;15.85;;;5.35;;
68250;SDS011;55066;51.560;4.642;2023-02-18T16:13:23;18.95;;;5.60;;
68250;SDS011;55066;51.560;4.642;2023-02-18T16:15:50;19.17;;;5.93;;
68250;SDS011;55066;51.560;4.642;2023-02-18T16:18:22;13.95;;;4.75;;
68250;SDS011;55066;51.560;4.642;2023-02-18T16:20:59;15.85;;;5.80;;
68250;SDS011;55066;51.560;4.642;2023-02-18T16:24:20;16.52;;;5.72;;
68250;SDS011;55066;51.560;4.642;2023-02-18T16:26:27;16.63;;;5.85;;
68250;SDS011;55066;51.560;4.642;2023-02-18T16:29:04;18.63;;;5.87;;
68250;SDS011;55066;51.560;4.642;2023-02-18T16:31:36;19.58;;;5.60;;
68250;SDS011;55066;51.560;4.642;2023-02-18T16:34:02;21.30;;;5.97;;
68250;SDS011;55066;51.560;4.642;2023-02-18T16:36:27;15.90;;;5.30;;
68250;SDS011;55066;51.560;4.642;2023-02-18T16:38:53;15.00;;;5.20;;
68250;SDS011;55066;51.560;4.642;2023-02-18T16:41:23;16.08;;;5.72;;
68250;SDS011;55066;51.560;4.642;2023-02-18T16:43:50;15.73;;;6.57;;
68250;SDS011;55066;51.560;4.642;2023-02-18T16:46:18;17.25;;;6.57;;
68250;SDS011;55066;51.560;4.642;2023-02-18T16:48:48;17.15;;;5.72;;
68250;SDS011;55066;51.560;4.642;2023-02-18T16:51:16;17.95;;;6.43;;
68250;SDS011;55066;51.560;4.642;2023-02-18T16:53:45;19.67;;;6.47;;
68250;SDS011;55066;51.560;4.642;2023-02-18T16:56:12;21.67;;;5.65;;
68250;SDS011;55066;51.560;4.642;2023-02-18T16:58:46;15.95;;;6.47;;
68250;SDS011;55066;51.560;4.642;2023-02-18T17:01:28;16.90;;;6.32;;
68250;SDS011;55066;51.560;4.642;2023-02-18T17:03:56;19.42;;;6.22;;
68250;SDS011;55066;51.560;4.642;2023-02-18T17:06:22;15.70;;;6.00;;
68250;SDS011;55066;51.560;4.642;2023-02-18T17:08:48;21.63;;;6.57;;
68250;SDS011;55066;51.560;4.642;2023-02-18T17:11:15;18.02;;;6.80;;
68250;SDS011;55066;51.560;4.642;2023-02-18T17:14:03;20.17;;;7.20;;